Pagrindinis puslapis
METAR-TAF:

METAR-TAF

Oro uostai :

Tarapoto, Peru

platuma: 06-27S, ilguma: 076-23W, Aukštis: 281 m

Dabartinis oras

Ataskaita buvo paskelbta 1 valandą ir 29 minutes, ne 03:00 UTC
Vėjas 3 kt iš Pietų/Pietryčių
Temperatūra 25°C
Drėgmė 83%
Slėgis 1012 hPa
Matomumas 10 km arba daugiau
Išsisklaidę debesys ne aukštis 1500 ft
Su prošvaistėmis ne aukštis 8000 ft

METAR: SPST 220300Z 15003KT 9999 SCT015 BKN080 25/22 Q1012 RMK BIRD HAZARD RWY 17/35 PP000

Laikas: 23:29 (04:29 UTC)

Prognozė

Ataskaita buvo paskelbta 5 valandos ir 29 minutes, ne 23:00 UTC
Prognozė galioja nuo 22 metu 00 UTC su 22 metu 24 UTC
Vėjas 2 kt nuo kintamojo kryptimis
Matomumas 10 km arba daugiau
Mažai debesys ne aukštis 1500 ft
Išsisklaidę debesys ne aukštis 10000 ft
Laikinai
nuo 22 metu 09 UTC su 22 metu 13 UTC
Vėjas kt iš Šiaurės
Matomumas: 5000 m
Išsisklaidę debesys ne aukštis 1000 ft
Su prošvaistėmis ne aukštis 7000 ft
rūkana

TAF: SPST 212300Z 2200/2224 VRB02KT 9999 FEW015 SCT100 TX33/2219Z TN22/2211Z TEMPO 2209/2213 00000KT 5000 BR SCT010 BKN070

Orai ataskaitas ir orų prognozės (METAR, TAF).

turimą stotys yra geltonos ir raudonos taškus žemėlapyje.

Perkelti pele per norėdami pamatyti stoties vardą.

Tada spustelėkite, norėdami matyti oro stebėjimo ir prognozės.

Norėdami pakeisti žemėlapį: spustelėkite ant žalios mygtukų su juodo kryžiaus žemyn,; žalią mygtuką su brūkšneliu, jei norite nutolinti; arba žalių rodyklių gretimoms žemėlapius.


METAR-TAF: